createdAt,value
2023-05-01T00:00:08.166Z,-0.20
2023-05-01T00:05:12.382Z,-0.11
2023-05-01T00:10:16.782Z,-0.06
2023-05-01T00:15:20.885Z,-0.35
2023-05-01T00:20:31.126Z,-0.03
2023-05-01T00:25:35.388Z,-0.08
2023-05-01T00:30:39.334Z,-0.01
2023-05-01T00:35:47.674Z,0.00
2023-05-01T00:40:51.644Z,0.07
2023-05-01T00:45:55.884Z,0.17
2023-05-01T00:51:02.889Z,0.23
2023-05-01T00:56:09.437Z,0.28
2023-05-01T01:01:14.016Z,0.26
2023-05-01T01:06:18.844Z,0.27
2023-05-01T01:11:55.264Z,0.32
2023-05-01T01:17:13.096Z,0.37
2023-05-01T01:22:24.190Z,0.36
2023-05-01T01:27:49.845Z,0.25
2023-05-01T01:33:37.314Z,0.13
2023-05-01T01:38:59.269Z,0.08
2023-05-01T01:44:21.641Z,0.09
2023-05-01T01:49:28.701Z,0.14
2023-05-01T01:55:37.624Z,0.28
2023-05-01T02:00:45.361Z,0.44
2023-05-01T02:05:51.806Z,0.52
2023-05-01T02:11:02.040Z,0.48
2023-05-01T02:16:08.202Z,0.46
2023-05-01T02:21:13.368Z,0.40
2023-05-01T02:26:19.346Z,0.39
2023-05-01T02:31:23.774Z,0.42
2023-05-01T02:36:28.903Z,0.53
2023-05-01T02:41:35.905Z,0.63
2023-05-01T02:46:45.582Z,0.65
2023-05-01T02:51:50.857Z,0.41
2023-05-01T02:56:55.046Z,0.77
2023-05-01T03:01:59.333Z,0.79
2023-05-01T03:07:03.473Z,0.83
2023-05-01T03:12:07.566Z,0.82
2023-05-01T03:17:11.531Z,0.94
2023-05-01T03:22:15.877Z,0.97
2023-05-01T03:27:19.680Z,0.98
2023-05-01T03:32:24.070Z,1.07
2023-05-01T03:37:29.689Z,1.01
2023-05-01T03:42:33.596Z,1.07
2023-05-01T03:47:44.979Z,1.07
2023-05-01T03:52:49.071Z,1.04
2023-05-01T03:57:53.490Z,1.06
2023-05-01T04:02:58.366Z,1.10
2023-05-01T04:08:02.965Z,1.08
2023-05-01T04:13:32.361Z,1.06
2023-05-01T04:18:36.476Z,1.04
2023-05-01T04:23:40.477Z,0.95
2023-05-01T04:28:45.336Z,0.91
2023-05-01T04:33:51.444Z,0.91
2023-05-01T04:38:56.222Z,0.98
2023-05-01T04:44:00.167Z,1.16
2023-05-01T04:49:04.259Z,1.38
2023-05-01T04:54:08.247Z,1.45
2023-05-01T04:59:14.219Z,1.58
2023-05-01T05:04:18.312Z,1.22
2023-05-01T05:09:22.376Z,1.78
2023-05-01T05:14:26.499Z,1.96
2023-05-01T05:19:30.837Z,2.21
2023-05-01T05:24:34.919Z,2.21
2023-05-01T05:29:38.869Z,2.15
2023-05-01T05:34:43.303Z,2.14
2023-05-01T05:39:47.287Z,2.24
2023-05-01T05:44:51.764Z,1.97
2023-05-01T05:49:56.951Z,2.39
2023-05-01T05:55:01.717Z,2.40
2023-05-01T06:00:10.202Z,2.41
2023-05-01T06:05:20.356Z,2.42
2023-05-01T06:10:24.370Z,2.27
2023-05-01T06:15:28.798Z,2.09
2023-05-01T06:20:33.383Z,2.20
2023-05-01T06:25:38.475Z,2.35
2023-05-01T06:30:42.349Z,2.38
2023-05-01T06:35:47.654Z,2.46
2023-05-01T06:40:51.634Z,2.56
2023-05-01T06:45:55.776Z,2.71
2023-05-01T06:50:59.883Z,2.66
2023-05-01T06:56:04.129Z,2.77
2023-05-01T07:01:09.171Z,2.67
2023-05-01T07:06:13.059Z,2.86
2023-05-01T07:11:17.300Z,2.82
2023-05-01T07:16:21.902Z,2.89
2023-05-01T07:21:26.197Z,3.11
2023-05-01T07:26:30.079Z,3.30
2023-05-01T07:32:11.523Z,3.38
2023-05-01T07:37:15.676Z,3.20
2023-05-01T07:42:19.425Z,3.08
2023-05-01T07:47:23.879Z,2.81
2023-05-01T07:52:28.188Z,2.63
2023-05-01T07:57:35.066Z,2.44
2023-05-01T08:02:39.228Z,2.45
2023-05-01T08:07:43.208Z,2.46
2023-05-01T08:12:47.212Z,2.54
2023-05-01T08:17:51.937Z,2.62
2023-05-01T08:22:56.047Z,2.55
2023-05-01T08:28:00.014Z,2.26
2023-05-01T08:33:04.326Z,2.04
2023-05-01T08:38:08.379Z,1.80
2023-05-01T08:43:13.691Z,2.11
2023-05-01T08:48:19.422Z,2.14
2023-05-01T08:53:26.911Z,2.21
2023-05-01T08:58:32.750Z,2.39
2023-05-01T09:03:38.734Z,2.29
2023-05-01T09:08:42.923Z,2.21
2023-05-01T09:13:47.900Z,2.28
2023-05-01T09:18:52.966Z,2.41
2023-05-01T09:23:57.154Z,2.47
2023-05-01T09:29:01.198Z,2.47
2023-05-01T09:34:08.067Z,2.53
2023-05-01T09:39:24.558Z,2.78
2023-05-01T09:44:28.669Z,2.88
2023-05-01T09:49:49.726Z,2.99
2023-05-01T09:55:19.988Z,2.94
2023-05-01T10:00:24.052Z,2.76
2023-05-01T10:05:28.322Z,2.84
2023-05-01T10:10:32.441Z,2.97
2023-05-01T10:15:39.329Z,2.97
2023-05-01T10:20:43.341Z,2.79
2023-05-01T10:25:50.719Z,2.66
2023-05-01T10:30:56.527Z,2.39
2023-05-01T10:36:01.853Z,2.36
2023-05-01T10:41:07.429Z,2.25
2023-05-01T10:46:11.251Z,2.19
2023-05-01T10:51:24.923Z,1.98
2023-05-01T10:56:34.947Z,1.96
2023-05-01T11:01:48.256Z,1.94
2023-05-01T11:07:11.754Z,1.87
2023-05-01T11:12:37.153Z,1.70
2023-05-01T11:17:43.829Z,1.73
2023-05-01T11:22:48.350Z,1.91
2023-05-01T11:27:54.564Z,2.06
2023-05-01T11:32:58.755Z,2.09
2023-05-01T11:38:03.683Z,2.24
2023-05-01T11:43:09.717Z,2.43
2023-05-01T11:48:19.928Z,2.49
2023-05-01T11:53:24.768Z,2.58
2023-05-01T11:58:34.461Z,2.47
2023-05-01T12:03:43.503Z,2.43
2023-05-01T12:08:52.446Z,2.32
2023-05-01T12:14:25.054Z,2.34
2023-05-01T12:19:29.191Z,2.35
2023-05-01T12:24:33.020Z,2.36
2023-05-01T12:30:02.352Z,2.35
2023-05-01T12:35:16.709Z,2.22
2023-05-01T12:40:23.676Z,2.16
2023-05-01T12:45:27.858Z,2.15
2023-05-01T12:50:38.413Z,2.13
2023-05-01T12:55:51.457Z,2.02
2023-05-01T13:01:15.279Z,1.91
2023-05-01T13:06:19.369Z,1.83
2023-05-01T13:11:23.611Z,1.75
2023-05-01T13:16:28.267Z,1.76
2023-05-01T13:21:32.640Z,1.73
2023-05-01T13:26:37.194Z,1.73
2023-05-01T13:31:45.262Z,1.72
2023-05-01T13:36:49.524Z,1.70
2023-05-01T13:41:54.426Z,1.64
2023-05-01T13:46:59.909Z,1.61
2023-05-01T13:52:03.960Z,1.52
2023-05-01T13:57:08.103Z,1.34
2023-05-01T14:02:31.058Z,1.22
2023-05-01T14:07:40.718Z,1.11
2023-05-01T14:12:44.762Z,0.94
2023-05-01T14:17:50.421Z,0.87
2023-05-01T14:22:54.421Z,0.81
2023-05-01T14:28:01.797Z,0.69
2023-05-01T14:33:12.385Z,0.73
2023-05-01T14:38:18.508Z,0.68
2023-05-01T14:43:22.857Z,0.60
2023-05-01T14:48:31.702Z,0.67
2023-05-01T14:53:35.700Z,0.62
2023-05-01T14:58:40.052Z,0.68
2023-05-01T15:03:44.458Z,0.64
2023-05-01T15:08:48.555Z,0.62
2023-05-01T15:13:52.508Z,0.62
2023-05-01T15:18:56.899Z,0.68
2023-05-01T15:24:01.110Z,0.70
2023-05-01T15:29:05.280Z,0.43
2023-05-01T15:34:09.366Z,0.56
2023-05-01T15:39:13.962Z,0.63
2023-05-01T15:44:18.961Z,0.63
2023-05-01T15:49:22.845Z,0.61
2023-05-01T15:54:28.660Z,0.60
2023-05-01T15:59:32.622Z,0.61
2023-05-01T16:04:36.755Z,0.59
2023-05-01T16:09:40.682Z,0.55
2023-05-01T16:14:45.254Z,0.54
2023-05-01T16:19:50.401Z,0.45
2023-05-01T16:24:54.439Z,0.53
2023-05-01T16:29:58.805Z,0.52
2023-05-01T16:35:06.003Z,0.43
2023-05-01T16:40:10.953Z,0.49
2023-05-01T16:45:14.932Z,0.47
2023-05-01T16:50:20.302Z,0.43
2023-05-01T16:55:27.098Z,0.41
2023-05-01T17:00:31.870Z,0.39
2023-05-01T17:05:35.868Z,0.38
2023-05-01T17:10:39.811Z,0.36
2023-05-01T17:15:43.743Z,0.37
2023-05-01T17:20:49.394Z,0.32
2023-05-01T17:25:53.401Z,0.31
2023-05-01T17:30:57.361Z,0.23
2023-05-01T17:36:01.216Z,0.20
2023-05-01T17:41:05.291Z,0.16
2023-05-01T17:46:09.917Z,0.08
2023-05-01T17:51:16.711Z,0.12
2023-05-01T17:56:20.597Z,0.13
2023-05-01T18:01:24.797Z,0.12
2023-05-01T18:06:28.927Z,0.12
2023-05-01T18:11:32.883Z,0.11
2023-05-01T18:16:36.896Z,0.14
2023-05-01T18:21:40.951Z,0.15
2023-05-01T18:26:45.161Z,0.13
2023-05-01T18:31:51.946Z,0.18
2023-05-01T18:36:55.879Z,0.18
2023-05-01T18:41:59.881Z,0.26
2023-05-01T18:47:03.732Z,0.26
2023-05-01T18:52:07.863Z,0.25
2023-05-01T18:57:11.764Z,0.24
2023-05-01T19:02:15.967Z,0.22
2023-05-01T19:07:20.164Z,0.17
2023-05-01T19:12:24.208Z,0.15
2023-05-01T19:17:28.473Z,0.13
2023-05-01T19:22:32.559Z,0.03
2023-05-01T19:27:36.709Z,0.02
2023-05-01T19:32:41.054Z,-0.05
2023-05-01T19:37:45.092Z,-0.07
2023-05-01T19:42:49.202Z,-0.15
2023-05-01T19:47:53.103Z,-0.27
2023-05-01T19:52:57.170Z,-0.43
2023-05-01T19:58:01.067Z,-0.48
2023-05-01T20:03:06.022Z,-0.54
2023-05-01T20:08:10.239Z,-0.58
2023-05-01T20:13:14.162Z,-0.66
2023-05-01T20:18:18.257Z,-0.70
2023-05-01T20:23:25.400Z,-0.73
2023-05-01T20:28:30.455Z,-0.75
2023-05-01T20:33:34.327Z,-0.77
2023-05-01T20:38:46.353Z,-0.78
2023-05-01T20:43:50.382Z,-0.81
2023-05-01T20:48:55.146Z,-0.84
2023-05-01T20:53:59.122Z,-0.84
2023-05-01T20:59:04.375Z,-0.87
2023-05-01T21:04:08.694Z,-0.90
2023-05-01T21:09:15.411Z,-0.93
2023-05-01T21:14:19.513Z,-0.93
2023-05-01T21:19:23.918Z,-0.98
2023-05-01T21:24:28.190Z,-0.97
2023-05-01T21:29:32.099Z,-1.02
2023-05-01T21:34:36.390Z,-1.08
2023-05-01T21:39:40.534Z,-1.37
2023-05-01T21:44:44.462Z,-1.13
2023-05-01T21:49:48.671Z,-1.07
2023-05-01T21:54:52.406Z,-1.03
2023-05-01T21:59:59.333Z,-1.01
2023-05-01T22:05:03.814Z,-0.96
2023-05-01T22:10:13.775Z,-1.04
2023-05-01T22:15:18.053Z,-1.11
2023-05-01T22:20:22.001Z,-1.19
2023-05-01T22:25:26.637Z,-1.25
2023-05-01T22:30:30.848Z,-1.28
2023-05-01T22:35:34.744Z,-1.22
2023-05-01T22:40:39.192Z,-1.23
2023-05-01T22:45:43.502Z,-1.21
2023-05-01T22:50:47.506Z,-1.15
2023-05-01T22:55:51.568Z,-1.15
2023-05-01T23:00:55.680Z,-1.17
2023-05-01T23:05:59.764Z,-1.18
2023-05-01T23:11:05.000Z,-1.25
2023-05-01T23:16:09.288Z,-1.22
2023-05-01T23:21:18.932Z,-1.20
2023-05-01T23:26:29.963Z,-1.20
2023-05-01T23:31:34.277Z,-1.27
2023-05-01T23:36:38.346Z,-1.28
2023-05-01T23:41:42.731Z,-1.27
2023-05-01T23:46:48.046Z,-1.20
2023-05-01T23:51:52.021Z,-1.15
2023-05-01T23:56:56.074Z,-1.16
